This is the latest recevied weather packets stored in our database for station/object AJ5AG. If no packets are shown the sender has not sent any weather packets the latest 1 day(s).
| Time | Temp. | Humidity | Pressure | Rain* | Wind** | Luminosity | Snow |
|---|---|---|---|---|---|---|---|
| 1778006742 | 28.89° C | 73% | 1011 hPa | 0 mm | 0.45 m/s, 126° | 423 W/m² | - |
| 1778006439 | 28.33° C | 73% | 1011.1 hPa | 0 mm | 0.45 m/s, 184° | 367 W/m² | - |
| 1778006135 | 28.33° C | 74% | 1010.9 hPa | 0 mm | 0 m/s | 446 W/m² | - |
| 1778005833 | 27.78° C | 75% | 1011 hPa | 0 mm | 0.45 m/s, 138° | 367 W/m² | - |
| 1778005529 | 27.22° C | 78% | 1011.2 hPa | 0 mm | 0 m/s | 500 W/m² | - |
| 1778005226 | 27.22° C | 78% | 1011.3 hPa | 0 mm | 0 m/s | 150 W/m² | - |
| 1778004923 | 27.22° C | 76% | 1011.3 hPa | 0 mm | 0 m/s | 135 W/m² | - |
| 1778004620 | 27.78° C | 76% | 1011.5 hPa | 0 mm | 0 m/s | 141 W/m² | - |
| 1778004316 | 27.22° C | 75% | 1011.3 hPa | 0 mm | 0.89 m/s, 77° | 345 W/m² | - |
| 1778004020 | 26.67° C | 79% | 1011.5 hPa | 0 mm | 0.45 m/s, 109° | 362 W/m² | - |
| 1778003708 | 26.67° C | 81% | 1011.5 hPa | 0 mm | 0.45 m/s, 108° | 132 W/m² | - |
| 1778003406 | 26.67° C | 79% | 1011.5 hPa | 0 mm | 0 m/s | 108 W/m² | - |
| 1778003103 | 27.22° C | 78% | 1011.4 hPa | 0 mm | 0 m/s | 77 W/m² | - |
| 1778002799 | 27.22° C | 77% | 1011.7 hPa | 0 mm | 0.45 m/s, 23° | 257 W/m² | - |
| 1778002495 | 27.22° C | 78% | 1011.7 hPa | 0 mm | 0 m/s | 167 W/m² | - |
| 1778002192 | 26.67° C | 79% | 1011.7 hPa | 0 mm | 0 m/s | 276 W/m² | - |
| 1778001891 | 26.11° C | 80% | 1011.8 hPa | 0 mm | 0.89 m/s, 356° | 336 W/m² | - |
| 1778001590 | 26.11° C | 80% | 1011.7 hPa | 0 mm | 0.45 m/s, 89° | 144 W/m² | - |
| 1778001287 | 26.11° C | 80% | 1011.7 hPa | 0 mm | 0 m/s | 122 W/m² | - |
| 1778000984 | 26.67° C | 80% | 1011.8 hPa | 0 mm | 0 m/s | 123 W/m² | - |
| 1778000680 | 26.67° C | 80% | 1011.6 hPa | 0 mm | 0.45 m/s, 146° | 78 W/m² | - |
| 1778000376 | 26.67° C | 80% | 1011.7 hPa | 0 mm | 0 m/s | 210 W/m² | - |
| 1778000072 | 26.11° C | 80% | 1011.7 hPa | 0 mm | 0.45 m/s, 49° | 275 W/m² | - |
| 1777999767 | 26.11° C | 80% | 1011.9 hPa | 0 mm | 0.89 m/s, 109° | 164 W/m² | - |
| 1777999464 | 26.11° C | 80% | 1011.9 hPa | 0 mm | 0.89 m/s, 59° | 217 W/m² | - |
* Rain latest hour (hover to see other rain measurements)
** Current wind speed in m/s (hover to see current wind gust speed)